Time;durP1;ratioP1;P1;durP2;ratioP2;P2;SDS_P1;SDS_P2;PMS_P1;PMS_P2;Temp;Humidity;BMP_temperature;BMP_pressure;BME280_temperature;BME280_humidity;BME280_pressure;Samples;Min_cycle;Max_cycle;Signal;HPM_P1;HPM_P2
2023/04/29 00:00:11;;;;;;;19.00;12.15;;;9.50;99.90;;;;;;7396335;19;19925;-76
2023/04/29 00:02:42;;;;;;;22.70;13.88;;;9.60;99.90;;;;;;7398940;19;20268;-76
2023/04/29 00:05:12;;;;;;;19.67;13.18;;;9.50;99.90;;;;;;7399178;19;19921;-77
2023/04/29 00:07:41;;;;;;;20.52;13.65;;;9.50;99.90;;;;;;7399717;19;19914;-75
2023/04/29 00:10:13;;;;;;;17.98;13.32;;;9.50;99.90;;;;;;7398595;19;20336;-75
2023/04/29 00:12:42;;;;;;;22.33;14.18;;;9.60;99.90;;;;;;7402033;19;20205;-75
2023/04/29 00:15:12;;;;;;;22.13;13.68;;;9.60;99.90;;;;;;7402685;19;19919;-75
2023/04/29 00:17:44;;;;;;;21.05;14.40;;;9.50;99.90;;;;;;7401998;19;19922;-75
2023/04/29 00:20:15;;;;;;;22.00;13.68;;;9.30;99.90;;;;;;7396041;19;19928;-75
2023/04/29 00:22:43;;;;;;;22.35;14.00;;;9.40;99.90;;;;;;7398096;19;19919;-75
2023/04/29 00:25:13;;;;;;;24.70;15.07;;;9.40;99.90;;;;;;7398310;19;19915;-76
2023/04/29 00:27:42;;;;;;;21.30;13.90;;;9.40;99.90;;;;;;7399868;19;19925;-75
2023/04/29 00:30:12;;;;;;;21.40;14.00;;;9.50;99.90;;;;;;7403169;19;19915;-75
2023/04/29 00:32:40;;;;;;;23.48;14.13;;;9.40;99.90;;;;;;7400850;19;20414;-75
2023/04/29 00:35:12;;;;;;;20.67;14.23;;;9.30;99.90;;;;;;7398976;19;19922;-76
2023/04/29 00:37:41;;;;;;;22.88;14.05;;;9.30;99.90;;;;;;7398329;19;19941;-75
2023/04/29 00:40:14;;;;;;;23.60;13.30;;;9.80;99.90;;;;;;7400342;19;19915;-75
2023/04/29 00:42:43;;;;;;;29.75;14.02;;;9.30;99.90;;;;;;7397423;19;19964;-74
2023/04/29 00:45:13;;;;;;;24.08;13.00;;;9.10;99.90;;;;;;7398654;19;20090;-75
2023/04/29 00:47:42;;;;;;;21.67;12.20;;;9.20;99.90;;;;;;7400793;19;19923;-75
2023/04/29 00:50:13;;;;;;;29.73;13.30;;;9.30;99.90;;;;;;7396899;19;19926;-76
2023/04/29 00:52:43;;;;;;;22.10;12.30;;;9.10;99.90;;;;;;7397293;19;19938;-75
2023/04/29 00:55:13;;;;;;;22.60;11.27;;;9.30;99.90;;;;;;7396610;19;19919;-75
2023/04/29 00:57:42;;;;;;;17.73;11.15;;;9.10;99.90;;;;;;7396967;19;19941;-75
2023/04/29 01:00:14;;;;;;;20.50;11.82;;;9.10;99.90;;;;;;7395230;19;19937;-76
2023/04/29 01:02:43;;;;;;;24.27;10.60;;;9.10;99.90;;;;;;7398984;19;19920;-75
2023/04/29 01:05:14;;;;;;;17.60;10.25;;;9.00;99.90;;;;;;7403529;19;19919;-76
2023/04/29 01:07:53;;;;;;;20.10;10.88;;;9.20;99.90;;;;;;7405066;19;20260;-75
2023/04/29 01:10:29;;;;;;;16.65;10.43;;;9.20;99.90;;;;;;7403959;19;19918;-75
2023/04/29 01:13:08;;;;;;;22.58;11.02;;;9.00;99.90;;;;;;7405142;19;19931;-75
2023/04/29 01:15:43;;;;;;;18.85;10.18;;;9.20;99.90;;;;;;7407319;19;19949;-75
2023/04/29 01:18:18;;;;;;;19.35;10.95;;;9.20;99.90;;;;;;7408046;19;19940;-75
2023/04/29 01:20:51;;;;;;;19.45;10.38;;;9.20;99.90;;;;;;7404856;19;20482;-75
2023/04/29 01:23:20;;;;;;;17.98;10.85;;;9.20;99.90;;;;;;7403190;19;19914;-76
2023/04/29 01:25:51;;;;;;;20.40;11.30;;;9.00;99.90;;;;;;7403014;19;19926;-75
2023/04/29 01:28:31;;;;;;;17.27;10.80;;;9.10;99.90;;;;;;7403003;19;19925;-75
2023/04/29 01:31:08;;;;;;;20.10;10.82;;;9.10;99.90;;;;;;7403160;19;19915;-75
2023/04/29 01:33:43;;;;;;;18.30;10.55;;;9.10;99.90;;;;;;7402879;19;19918;-75
2023/04/29 01:36:21;;;;;;;22.40;11.48;;;9.10;99.90;;;;;;7403838;19;19922;-75
2023/04/29 01:38:59;;;;;;;26.90;11.85;;;9.00;99.90;;;;;;7404324;19;19911;-76
2023/04/29 01:41:42;;;;;;;23.50;12.00;;;9.00;99.90;;;;;;7403225;19;19918;-77
2023/04/29 01:44:15;;;;;;;;;;;9.00;99.90;;;;;;7405696;19;19918;-76
2023/04/29 01:46:45;;;;;;;21.17;10.85;;;9.10;99.90;;;;;;7403976;19;19918;-76
2023/04/29 01:49:15;;;;;;;20.92;10.27;;;9.00;99.90;;;;;;7401681;19;19928;-76
2023/04/29 01:51:43;;;;;;;17.15;10.07;;;9.10;99.90;;;;;;7402791;19;20308;-75
2023/04/29 01:54:12;;;;;;;21.70;10.77;;;9.00;99.90;;;;;;7404786;19;19915;-75
2023/04/29 01:56:44;;;;;;;19.70;10.75;;;9.10;99.90;;;;;;7402458;19;19919;-76
2023/04/29 01:59:13;;;;;;;19.45;10.25;;;9.00;99.90;;;;;;7401953;19;19924;-75
2023/04/29 02:01:42;;;;;;;19.45;9.20;;;9.00;99.90;;;;;;7399988;19;19921;-76
2023/04/29 02:04:11;;;;;;;15.82;9.88;;;11.00;99.90;;;;;;7402577;19;19923;-75
2023/04/29 02:06:40;;;;;;;22.45;10.05;;;9.00;99.90;;;;;;7402192;19;19922;-75
2023/04/29 02:09:09;;;;;;;17.85;10.18;;;9.00;99.90;;;;;;7402628;19;20294;-75
2023/04/29 02:11:38;;;;;;;16.13;9.57;;;9.00;99.90;;;;;;7404878;19;20337;-75
2023/04/29 02:14:11;;;;;;;18.95;9.60;;;8.90;99.90;;;;;;7399221;19;19915;-76
2023/04/29 02:16:40;;;;;;;20.95;9.85;;;8.90;99.90;;;;;;7402429;19;19919;-75
2023/04/29 02:19:09;;;;;;;17.25;10.15;;;9.10;99.90;;;;;;7401547;19;19917;-75
2023/04/29 02:21:39;;;;;;;23.92;10.98;;;8.90;99.90;;;;;;7402044;19;19930;-75
2023/04/29 02:24:08;;;;;;;20.77;10.77;;;9.00;99.90;;;;;;7401995;19;19933;-75
2023/04/29 02:26:37;;;;;;;23.48;10.32;;;9.00;99.90;;;;;;7401868;19;19919;-75
2023/04/29 02:29:06;;;;;;;19.25;11.25;;;9.00;99.90;;;;;;7406232;19;19922;-75
2023/04/29 02:31:37;;;;;;;21.38;9.77;;;9.00;99.90;;;;;;7401628;19;20315;-75
2023/04/29 02:34:06;;;;;;;20.58;10.27;;;8.90;99.90;;;;;;7402130;19;19929;-75
2023/04/29 02:36:35;;;;;;;24.55;10.45;;;8.90;99.90;;;;;;7401656;19;19915;-75
2023/04/29 02:39:04;;;;;;;20.75;11.40;;;8.90;99.90;;;;;;7403272;19;20344;-75
2023/04/29 02:41:33;;;;;;;20.48;11.90;;;8.90;99.90;;;;;;7400748;19;19913;-75
2023/04/29 02:44:01;;;;;;;20.80;11.20;;;8.90;99.90;;;;;;7401532;19;19921;-75
2023/04/29 02:46:32;;;;;;;21.25;11.43;;;8.90;99.90;;;;;;7401757;19;19946;-75
2023/04/29 02:49:04;;;;;;;19.52;10.65;;;9.00;99.90;;;;;;7401466;19;20633;-75
2023/04/29 02:51:33;;;;;;;25.13;10.93;;;9.00;99.90;;;;;;7401164;19;19914;-76
2023/04/29 02:54:02;;;;;;;21.92;10.32;;;8.80;99.90;;;;;;7401007;19;20283;-75
2023/04/29 02:56:31;;;;;;;23.73;10.07;;;8.90;99.90;;;;;;7400962;19;19919;-75
2023/04/29 02:59:00;;;;;;;21.23;10.73;;;8.80;99.90;;;;;;7400320;19;19918;-75
2023/04/29 03:01:29;;;;;;;18.45;8.68;;;8.90;99.90;;;;;;7400280;19;20374;-76
2023/04/29 03:03:58;;;;;;;16.55;9.15;;;8.80;99.90;;;;;;7400512;19;19918;-75
2023/04/29 03:06:30;;;;;;;22.70;10.90;;;8.90;99.90;;;;;;7400497;19;19934;-75
2023/04/29 03:08:59;;;;;;;22.38;9.35;;;8.80;99.90;;;;;;7400554;19;20286;-75
2023/04/29 03:11:28;;;;;;;17.52;9.30;;;8.50;99.90;;;;;;7400372;19;19965;-75
2023/04/29 03:13:57;;;;;;;19.42;9.15;;;8.80;99.90;;;;;;7399325;19;19938;-75
2023/04/29 03:16:27;;;;;;;19.52;9.02;;;8.60;99.90;;;;;;7400706;19;19915;-75
2023/04/29 03:18:56;;;;;;;15.93;8.60;;;8.60;99.90;;;;;;7402235;19;19918;-76
2023/04/29 03:21:26;;;;;;;19.45;10.05;;;8.60;99.90;;;;;;7398684;19;20367;-75
2023/04/29 03:23:58;;;;;;;16.42;8.43;;;8.70;99.90;;;;;;7400067;19;19924;-75
2023/04/29 03:26:27;;;;;;;14.15;8.45;;;8.60;99.90;;;;;;7399336;19;19918;-75
2023/04/29 03:28:57;;;;;;;16.13;8.70;;;8.70;99.90;;;;;;7398562;19;20255;-75
2023/04/29 03:31:26;;;;;;;15.48;9.00;;;9.30;99.90;;;;;;7399901;19;19918;-76
2023/04/29 03:33:55;;;;;;;17.08;7.72;;;8.60;99.90;;;;;;7400328;19;19918;-75
2023/04/29 03:36:24;;;;;;;17.60;7.53;;;8.50;99.90;;;;;;7404516;19;19922;-75
2023/04/29 03:38:52;;;;;;;19.23;8.32;;;8.70;99.90;;;;;;7403119;19;19910;-75
2023/04/29 03:41:25;;;;;;;14.20;7.90;;;9.20;99.90;;;;;;7399765;19;19907;-76
2023/04/29 03:43:55;;;;;;;20.50;8.85;;;8.70;99.90;;;;;;7406786;19;19915;-75
2023/04/29 03:46:24;;;;;;;18.33;9.07;;;8.70;99.90;;;;;;7400499;19;20360;-75
2023/04/29 03:48:54;;;;;;;16.73;7.75;;;8.60;99.90;;;;;;7399842;19;19918;-75
2023/04/29 03:51:24;;;;;;;14.93;8.38;;;8.70;99.90;;;;;;7399453;19;19970;-75
2023/04/29 03:53:55;;;;;;;17.67;9.27;;;8.60;99.90;;;;;;7401090;19;19919;-75
2023/04/29 03:56:27;;;;;;;14.10;8.80;;;8.60;99.90;;;;;;7399210;19;19938;-75
2023/04/29 03:58:55;;;;;;;;;;;8.70;99.90;;;;;;7402390;19;20336;-76
2023/04/29 04:01:24;;;;;;;16.60;8.00;;;8.60;99.90;;;;;;7397486;19;19929;-76
2023/04/29 04:03:53;;;;;;;15.85;8.43;;;8.60;99.90;;;;;;7398802;19;19914;-75
2023/04/29 04:06:22;;;;;;;18.77;9.32;;;8.70;99.90;;;;;;7402171;19;19942;-75
2023/04/29 04:08:51;;;;;;;17.25;8.02;;;8.70;99.90;;;;;;7401268;19;19922;-76
2023/04/29 04:11:20;;;;;;;18.88;9.35;;;8.70;99.90;;;;;;7398602;19;20255;-76
2023/04/29 04:13:51;;;;;;;19.55;8.35;;;8.70;99.90;;;;;;7397238;19;19924;-75
2023/04/29 04:16:20;;;;;;;20.65;10.02;;;8.70;99.90;;;;;;7399989;19;19922;-74
2023/04/29 04:18:49;;;;;;;19.90;10.02;;;8.60;99.90;;;;;;7397970;19;19946;-75
2023/04/29 04:21:18;;;;;;;21.30;10.38;;;8.80;99.90;;;;;;7396745;19;19925;-74
2023/04/29 04:23:47;;;;;;;21.45;9.98;;;8.70;99.90;;;;;;7398053;19;19918;-74
2023/04/29 04:26:17;;;;;;;22.23;11.68;;;9.10;99.90;;;;;;7399206;19;20560;-75
2023/04/29 04:28:46;;;;;;;22.40;11.10;;;8.60;99.90;;;;;;7398245;19;19929;-75
2023/04/29 04:31:17;;;;;;;19.55;10.80;;;8.70;99.90;;;;;;7397763;19;19953;-74
2023/04/29 04:33:46;;;;;;;21.42;11.13;;;8.60;99.90;;;;;;7397852;19;19915;-75
2023/04/29 04:36:15;;;;;;;20.30;10.32;;;8.50;99.90;;;;;;7397411;19;19922;-75
2023/04/29 04:38:44;;;;;;;21.55;9.98;;;8.70;99.90;;;;;;7400826;19;19918;-75
2023/04/29 04:41:13;;;;;;;21.48;10.85;;;8.60;99.90;;;;;;7405959;19;19922;-75
2023/04/29 04:43:42;;;;;;;19.17;9.93;;;8.60;99.90;;;;;;7407129;19;19927;-75
2023/04/29 04:46:13;;;;;;;19.10;9.90;;;8.60;99.90;;;;;;7404090;19;19922;-75
2023/04/29 04:48:44;;;;;;;16.48;9.77;;;8.50;99.90;;;;;;7404174;19;19940;-75
2023/04/29 04:51:14;;;;;;;18.45;9.38;;;8.70;99.90;;;;;;7404575;19;20309;-75
2023/04/29 04:53:43;;;;;;;17.17;9.07;;;8.70;99.90;;;;;;7403852;19;19930;-76
2023/04/29 04:56:12;;;;;;;19.52;8.65;;;9.00;99.90;;;;;;7404297;19;19918;-76
2023/04/29 04:58:40;;;;;;;16.80;8.07;;;8.70;99.90;;;;;;7404192;19;19925;-75
2023/04/29 05:01:09;;;;;;;18.17;7.82;;;8.80;99.90;;;;;;7403921;19;20412;-74
2023/04/29 05:03:38;;;;;;;13.35;8.18;;;8.60;99.90;;;;;;7403615;19;20354;-75
2023/04/29 05:06:10;;;;;;;13.65;8.35;;;8.60;99.90;;;;;;7404988;19;19910;-76
2023/04/29 05:08:39;;;;;;;16.63;8.38;;;8.60;99.90;;;;;;7403797;19;19921;-75
2023/04/29 05:11:08;;;;;;;17.88;7.93;;;8.70;99.90;;;;;;7403921;19;20336;-75
2023/04/29 05:13:36;;;;;;;17.08;9.23;;;8.50;99.90;;;;;;7402035;19;19928;-75
2023/04/29 05:16:06;;;;;;;16.55;8.60;;;8.50;99.90;;;;;;7403710;19;19929;-76
2023/04/29 05:18:35;;;;;;;14.48;8.32;;;8.70;99.90;;;;;;7406661;19;19918;-75
2023/04/29 05:21:04;;;;;;;15.77;8.43;;;8.60;99.90;;;;;;7401994;19;19918;-75
2023/04/29 05:23:35;;;;;;;16.48;7.47;;;8.60;99.90;;;;;;7403083;19;19922;-75
2023/04/29 05:26:04;;;;;;;15.13;7.75;;;8.60;99.90;;;;;;7403528;19;19994;-75
2023/04/29 05:28:34;;;;;;;12.23;7.47;;;8.60;99.90;;;;;;7403302;19;19946;-75
2023/04/29 05:31:03;;;;;;;14.63;9.30;;;8.70;99.90;;;;;;7403244;19;20295;-75
2023/04/29 05:33:32;;;;;;;18.75;9.00;;;8.70;99.90;;;;;;7403126;19;19935;-75
2023/04/29 05:36:01;;;;;;;16.73;7.88;;;8.70;99.90;;;;;;7407443;19;19932;-75
2023/04/29 05:38:30;;;;;;;15.52;8.13;;;8.50;99.90;;;;;;7403666;19;19915;-75
2023/04/29 05:41:02;;;;;;;21.40;8.52;;;8.80;99.90;;;;;;7405092;19;20405;-76
2023/04/29 05:43:30;;;;;;;;;;;8.70;99.90;;;;;;7405561;19;20298;-75
2023/04/29 05:46:00;;;;;;;15.82;7.05;;;8.60;99.90;;;;;;7402487;19;20330;-76
2023/04/29 05:48:29;;;;;;;19.15;8.00;;;8.80;99.90;;;;;;7403067;19;20240;-76
2023/04/29 05:50:58;;;;;;;18.10;7.45;;;8.80;99.90;;;;;;7403067;19;19936;-76
2023/04/29 05:53:27;;;;;;;12.35;7.15;;;8.90;99.90;;;;;;7402863;19;19986;-75
2023/04/29 05:55:56;;;;;;;13.13;6.68;;;8.80;99.90;;;;;;7402778;19;19921;-75
2023/04/29 05:58:27;;;;;;;16.20;7.35;;;8.80;99.90;;;;;;7402761;19;19941;-76
2023/04/29 06:00:56;;;;;;;12.82;7.32;;;8.90;99.90;;;;;;7402011;19;19930;-75
2023/04/29 06:03:25;;;;;;;13.90;6.50;;;9.00;99.90;;;;;;7402238;19;19922;-75
2023/04/29 06:05:54;;;;;;;14.60;8.10;;;8.90;99.90;;;;;;7404613;19;20082;-75
2023/04/29 06:08:23;;;;;;;13.05;6.55;;;8.90;99.90;;;;;;7402835;19;19974;-75
2023/04/29 06:10:52;;;;;;;12.13;6.72;;;8.90;99.90;;;;;;7402077;19;19919;-76
2023/04/29 06:13:21;;;;;;;17.17;7.25;;;9.40;99.90;;;;;;7401377;19;19929;-75
2023/04/29 06:15:53;;;;;;;14.55;7.15;;;9.00;99.90;;;;;;7402211;19;19911;-75
2023/04/29 06:18:22;;;;;;;14.57;6.95;;;9.10;99.90;;;;;;7406222;19;19933;-75
2023/04/29 06:20:51;;;;;;;12.00;6.40;;;9.10;99.90;;;;;;7400991;19;19918;-75
2023/04/29 06:23:20;;;;;;;15.20;7.25;;;9.10;99.90;;;;;;7402088;19;19922;-75
2023/04/29 06:25:49;;;;;;;10.63;6.25;;;9.20;99.90;;;;;;7403955;19;20565;-75
2023/04/29 06:28:18;;;;;;;14.10;7.38;;;9.30;99.90;;;;;;7402096;19;20657;-74
2023/04/29 06:30:47;;;;;;;10.68;5.93;;;9.10;99.90;;;;;;7401359;19;19918;-74
2023/04/29 06:33:19;;;;;;;13.40;7.22;;;9.30;99.90;;;;;;7401351;19;19970;-75
2023/04/29 06:35:47;;;;;;;13.25;6.72;;;9.40;99.90;;;;;;7401650;19;19919;-74
2023/04/29 06:38:16;;;;;;;12.45;6.80;;;9.30;99.90;;;;;;7401545;19;19918;-75
2023/04/29 06:40:45;;;;;;;9.88;5.22;;;9.50;99.90;;;;;;7403826;19;19911;-75
2023/04/29 06:43:14;;;;;;;9.38;5.63;;;9.50;99.90;;;;;;7403283;19;20312;-74
2023/04/29 06:45:43;;;;;;;11.20;5.97;;;9.50;99.90;;;;;;7400987;19;19946;-75
2023/04/29 06:48:12;;;;;;;13.65;6.63;;;9.50;99.90;;;;;;7404400;19;19975;-75
2023/04/29 06:50:51;;;;;;;12.38;6.97;;;9.40;99.90;;;;;;7400677;19;19919;-75
2023/04/29 06:53:20;;;;;;;9.45;5.32;;;9.70;99.90;;;;;;7401498;19;19929;-75
2023/04/29 06:55:49;;;;;;;12.30;5.82;;;9.80;99.90;;;;;;7402240;19;20013;-75
2023/04/29 06:58:18;;;;;;;12.07;5.68;;;9.70;99.90;;;;;;7401658;19;19923;-75
2023/04/29 07:00:48;;;;;;;12.32;6.57;;;9.90;99.90;;;;;;7402028;19;19922;-75
2023/04/29 07:03:18;;;;;;;10.13;6.10;;;9.80;99.90;;;;;;7400936;19;19915;-75
2023/04/29 07:05:50;;;;;;;11.25;5.63;;;9.70;99.90;;;;;;7400483;19;19914;-75
2023/04/29 07:08:19;;;;;;;11.18;5.65;;;9.80;99.90;;;;;;7400300;19;19928;-76
2023/04/29 07:10:56;;;;;;;9.77;5.22;;;9.80;99.90;;;;;;7403119;19;19915;-75
2023/04/29 07:13:25;;;;;;;12.50;5.93;;;10.40;99.90;;;;;;7399714;19;19919;-75
2023/04/29 07:15:54;;;;;;;11.13;5.60;;;9.70;99.90;;;;;;7398558;19;19922;-76
2023/04/29 07:18:22;;;;;;;12.63;5.65;;;9.90;99.90;;;;;;7404288;19;19937;-75
2023/04/29 07:20:54;;;;;;;10.35;6.22;;;9.70;99.90;;;;;;7400118;19;20010;-75
2023/04/29 07:23:23;;;;;;;;;;;9.90;99.90;;;;;;7402599;19;19910;-75
2023/04/29 07:25:52;;;;;;;8.07;4.95;;;9.80;99.90;;;;;;7399618;19;19918;-75
2023/04/29 07:28:21;;;;;;;9.00;5.60;;;9.80;99.90;;;;;;7400091;19;19967;-74
2023/04/29 07:30:50;;;;;;;9.90;5.88;;;9.90;99.90;;;;;;7400184;19;19919;-75
2023/04/29 07:33:19;;;;;;;11.20;5.40;;;9.90;99.90;;;;;;7400634;19;19918;-75
2023/04/29 07:35:49;;;;;;;9.45;5.65;;;9.70;99.90;;;;;;7399308;19;20356;-75
2023/04/29 07:38:20;;;;;;;11.23;6.20;;;9.90;99.90;;;;;;7399696;19;19922;-74
2023/04/29 07:40:49;;;;;;;12.80;5.97;;;9.70;99.90;;;;;;7402097;19;20299;-75
2023/04/29 07:43:18;;;;;;;11.90;6.45;;;9.80;99.90;;;;;;7398658;19;19930;-75
2023/04/29 07:45:47;;;;;;;12.48;6.60;;;9.80;99.90;;;;;;7398908;19;19922;-74
2023/04/29 07:48:16;;;;;;;12.93;6.22;;;9.70;99.90;;;;;;7402802;19;20359;-75
2023/04/29 07:50:45;;;;;;;12.82;5.90;;;9.80;99.90;;;;;;7400716;19;19923;-76
2023/04/29 07:53:14;;;;;;;10.18;5.43;;;9.90;99.90;;;;;;7398767;19;19928;-76
2023/04/29 07:55:46;;;;;;;11.18;6.03;;;9.90;99.90;;;;;;7399207;19;19939;-75
2023/04/29 07:58:15;;;;;;;10.90;5.70;;;9.90;99.90;;;;;;7398429;19;19918;-75
2023/04/29 08:00:44;;;;;;;11.50;5.30;;;9.90;99.90;;;;;;7398442;19;19926;-76
2023/04/29 08:03:12;;;;;;;7.60;4.78;;;10.00;99.90;;;;;;7399518;19;20010;-76
2023/04/29 08:05:43;;;;;;;11.27;4.95;;;10.00;99.90;;;;;;7398829;19;20387;-76
2023/04/29 08:08:12;;;;;;;9.18;5.50;;;10.00;99.90;;;;;;7401444;19;19919;-75
2023/04/29 08:10:42;;;;;;;9.05;5.05;;;10.10;99.90;;;;;;7400550;19;20279;-75
2023/04/29 08:13:14;;;;;;;9.25;4.40;;;10.00;99.90;;;;;;7394145;19;20270;-75
2023/04/29 08:15:43;;;;;;;9.15;4.75;;;10.10;99.90;;;;;;7397904;19;20224;-75
2023/04/29 08:18:12;;;;;;;11.38;5.30;;;10.20;99.90;;;;;;7401833;19;20348;-76
2023/04/29 08:20:41;;;;;;;7.30;5.18;;;10.20;99.90;;;;;;7398060;19;19921;-75
2023/04/29 08:23:10;;;;;;;8.68;5.07;;;10.10;99.90;;;;;;7396027;19;19922;-75
2023/04/29 08:25:42;;;;;;;8.52;5.20;;;10.10;99.90;;;;;;7402753;19;19918;-77
2023/04/29 08:28:14;;;;;;;11.13;5.47;;;10.40;99.90;;;;;;7398052;19;19914;-76
2023/04/29 08:30:43;;;;;;;12.35;5.10;;;10.40;99.90;;;;;;7398079;19;19987;-76
2023/04/29 08:33:13;;;;;;;7.53;4.78;;;10.40;99.90;;;;;;7397811;19;19929;-75
2023/04/29 08:35:42;;;;;;;8.57;4.53;;;10.60;99.90;;;;;;7398093;19;19925;-75
2023/04/29 08:38:12;;;;;;;11.73;5.22;;;10.50;99.90;;;;;;7397611;19;19923;-76
2023/04/29 08:40:45;;;;;;;8.50;4.95;;;10.40;99.90;;;;;;7397684;19;20372;-76
2023/04/29 08:43:18;;;;;;;9.68;4.40;;;10.50;99.90;;;;;;7395359;19;20002;-75
2023/04/29 08:45:50;;;;;;;9.02;4.07;;;10.20;99.90;;;;;;7397087;19;19915;-75
2023/04/29 08:48:19;;;;;;;12.95;4.72;;;10.50;99.90;;;;;;7401063;19;19945;-75
2023/04/29 08:50:48;;;;;;;8.70;5.25;;;10.40;99.90;;;;;;7397367;19;19922;-75
2023/04/29 08:53:17;;;;;;;9.07;4.28;;;10.50;99.90;;;;;;7397775;19;19918;-76
2023/04/29 08:55:47;;;;;;;10.25;4.30;;;10.60;99.90;;;;;;7397176;19;20367;-75
2023/04/29 08:58:18;;;;;;;8.38;4.32;;;10.60;99.90;;;;;;7398313;19;19929;-76
2023/04/29 09:00:48;;;;;;;9.35;4.65;;;10.60;99.90;;;;;;7397437;19;20245;-76
2023/04/29 09:03:22;;;;;;;11.45;4.88;;;10.70;99.90;;;;;;7395197;19;20303;-76
2023/04/29 09:05:55;;;;;;;11.27;4.28;;;10.70;99.90;;;;;;7396173;19;19919;-75
2023/04/29 09:08:25;;;;;;;8.98;4.05;;;10.90;99.90;;;;;;7396512;19;19922;-75
2023/04/29 09:10:55;;;;;;;12.57;4.72;;;10.80;99.90;;;;;;7399083;19;19974;-75
2023/04/29 09:13:31;;;;;;;10.40;4.97;;;10.90;99.90;;;;;;7394930;19;20333;-75
2023/04/29 09:16:00;;;;;;;8.63;4.63;;;11.00;99.90;;;;;;7398047;19;19915;-76
2023/04/29 09:18:49;;;;;;;12.70;5.13;;;11.00;99.90;;;;;;7396149;19;19918;-76
2023/04/29 09:21:20;;;;;;;9.88;4.30;;;11.10;99.90;;;;;;7395862;19;19914;-76
2023/04/29 09:23:50;;;;;;;8.18;4.38;;;11.10;99.90;;;;;;7397345;19;20244;-76
2023/04/29 09:26:19;;;;;;;11.27;5.00;;;11.20;99.90;;;;;;7403108;19;19974;-76
2023/04/29 09:29:09;;;;;;;8.13;4.07;;;11.30;99.90;;;;;;7403019;19;19918;-76
2023/04/29 09:31:40;;;;;;;12.25;4.30;;;11.30;99.90;;;;;;7403228;19;19938;-77
2023/04/29 09:34:10;;;;;;;11.82;5.60;;;11.40;99.90;;;;;;7407079;19;19921;-76
2023/04/29 09:36:43;;;;;;;7.38;3.60;;;11.40;99.90;;;;;;7402803;19;19917;-76
2023/04/29 09:39:15;;;;;;;8.50;3.83;;;11.50;99.90;;;;;;7402490;19;20406;-75
2023/04/29 09:42:01;;;;;;;6.63;3.20;;;11.70;99.90;;;;;;7403382;19;19926;-76
2023/04/29 09:44:34;;;;;;;9.23;4.03;;;11.70;99.90;;;;;;7401949;19;20351;-75
2023/04/29 09:47:05;;;;;;;6.93;3.40;;;11.80;99.90;;;;;;7403414;19;19918;-75
2023/04/29 09:49:37;;;;;;;7.68;3.30;;;11.70;99.90;;;;;;7403826;19;20318;-75
2023/04/29 09:52:09;;;;;;;8.25;3.38;;;11.80;99.90;;;;;;7403419;19;19929;-76
2023/04/29 09:54:41;;;;;;;7.32;3.38;;;11.90;99.90;;;;;;7400063;19;19977;-78
2023/04/29 09:57:11;;;;;;;8.68;3.70;;;12.00;99.90;;;;;;7400429;19;19910;-76
2023/04/29 09:59:44;;;;;;;11.18;3.60;;;12.00;99.90;;;;;;7403028;19;19987;-77
2023/04/29 10:02:17;;;;;;;7.70;2.60;;;11.90;99.90;;;;;;7399738;19;19926;-76
2023/04/29 10:04:56;;;;;;;5.85;2.65;;;11.90;99.90;;;;;;7399426;19;19918;-75
2023/04/29 10:07:25;;;;;;;6.47;2.80;;;12.00;99.90;;;;;;7407390;19;19923;-77
2023/04/29 10:09:54;;;;;;;7.07;2.70;;;12.10;99.90;;;;;;7404043;19;19922;-76
2023/04/29 10:12:23;;;;;;;3.95;2.90;;;12.00;99.90;;;;;;7404634;19;19934;-75
2023/04/29 10:15:04;;;;;;;6.22;2.72;;;12.00;99.90;;;;;;7400075;19;19922;-75
2023/04/29 10:17:44;;;;;;;9.00;3.30;;;12.20;99.90;;;;;;7402563;19;19933;-76
2023/04/29 10:20:16;;;;;;;8.23;3.35;;;12.10;99.90;;;;;;7404989;19;20276;-75
2023/04/29 10:22:49;;;;;;;7.55;3.83;;;12.30;99.90;;;;;;7401087;19;19929;-75
2023/04/29 10:25:18;;;;;;;6.80;3.15;;;12.30;99.90;;;;;;7401726;19;19934;-76
2023/04/29 10:27:50;;;;;;;7.30;3.25;;;12.40;99.90;;;;;;7400965;19;19925;-76
2023/04/29 10:30:23;;;;;;;7.93;3.80;;;12.60;99.90;;;;;;7401254;19;19918;-76
2023/04/29 10:32:53;;;;;;;6.43;3.15;;;12.60;99.90;;;;;;7401516;19;19928;-76
2023/04/29 10:35:24;;;;;;;8.30;3.80;;;12.70;99.90;;;;;;7399210;19;19942;-76
2023/04/29 10:37:54;;;;;;;9.25;3.45;;;12.80;99.90;;;;;;7400878;19;20782;-76
2023/04/29 10:40:29;;;;;;;7.95;3.53;;;13.00;99.90;;;;;;7402819;19;20253;-76
2023/04/29 10:42:59;;;;;;;4.95;3.10;;;12.90;99.90;;;;;;7404377;19;19914;-76
2023/04/29 10:45:34;;;;;;;5.78;3.33;;;12.90;99.90;;;;;;7400939;19;19918;-76
2023/04/29 10:48:21;;;;;;;10.38;3.45;;;12.90;99.90;;;;;;7404120;19;19929;-76
2023/04/29 10:51:04;;;;;;;8.40;3.70;;;13.00;99.90;;;;;;7401296;19;20005;-77
2023/04/29 10:53:33;;;;;;;8.73;3.72;;;13.00;99.90;;;;;;7400701;19;19918;-76
2023/04/29 10:56:08;;;;;;;8.48;4.05;;;13.00;99.90;;;;;;7400665;19;19918;-76
2023/04/29 10:58:44;;;;;;;5.93;3.67;;;13.40;99.90;;;;;;7403829;19;19922;-77
2023/04/29 11:01:18;;;;;;;7.68;4.18;;;13.30;99.90;;;;;;7399149;19;20348;-77
2023/04/29 11:03:57;;;;;;;8.80;3.92;;;13.20;99.90;;;;;;7398756;19;20378;-76
2023/04/29 11:06:28;;;;;;;6.93;3.88;;;13.10;99.90;;;;;;7400055;19;19918;-76
2023/04/29 11:09:04;;;;;;;5.95;3.65;;;13.00;99.90;;;;;;7400050;19;19923;-76
2023/04/29 11:11:49;;;;;;;8.20;4.22;;;13.00;99.90;;;;;;7400188;19;19926;-76
2023/04/29 11:14:24;;;;;;;9.52;4.30;;;13.30;99.90;;;;;;7400004;19;20661;-76
2023/04/29 11:17:00;;;;;;;10.52;4.63;;;13.20;99.90;;;;;;7401034;19;19922;-76
2023/04/29 11:19:34;;;;;;;6.63;3.33;;;13.40;99.90;;;;;;7399860;19;20255;-76
2023/04/29 11:22:14;;;;;;;5.97;3.78;;;13.40;99.90;;;;;;7399970;19;20376;-77
2023/04/29 11:24:57;;;;;;;6.05;3.55;;;13.40;99.90;;;;;;7399713;19;19921;-77
2023/04/29 11:27:28;;;;;;;11.13;4.05;;;13.40;99.90;;;;;;7398051;19;20007;-77
2023/04/29 11:29:59;;;;;;;4.55;2.50;;;13.60;99.90;;;;;;7399732;19;19922;-77
2023/04/29 11:32:32;;;;;;;6.63;3.28;;;13.70;99.90;;;;;;7402890;19;19955;-76
2023/04/29 11:35:12;;;;;;;5.72;2.75;;;13.80;99.90;;;;;;7399417;19;19922;-77
2023/04/29 11:37:42;;;;;;;6.93;2.30;;;13.90;99.90;;;;;;7399242;19;19918;-77
2023/04/29 11:40:13;;;;;;;5.20;2.25;;;13.80;99.90;;;;;;7399655;19;19925;-77
2023/04/29 11:42:44;;;;;;;3.40;1.88;;;14.10;99.90;;;;;;7402675;19;19923;-77
2023/04/29 11:45:14;;;;;;;2.38;2.03;;;14.10;99.90;;;;;;7399369;19;19922;-77
2023/04/29 11:47:48;;;;;;;3.08;1.83;;;14.40;99.90;;;;;;7401060;19;19919;-77
2023/04/29 11:50:18;;;;;;;2.45;1.23;;;14.40;99.90;;;;;;7398370;19;20268;-77
2023/04/29 11:52:49;;;;;;;3.78;1.45;;;14.40;99.90;;;;;;7398351;19;19918;-77
2023/04/29 11:55:18;;;;;;;2.95;1.73;;;14.20;99.90;;;;;;7398346;19;19946;-77
2023/04/29 11:57:47;;;;;;;3.45;1.38;;;14.20;99.90;;;;;;7402454;19;20319;-77
2023/04/29 12:00:16;;;;;;;2.22;1.50;;;14.20;99.90;;;;;;7399230;19;19918;-77
2023/04/29 12:02:48;;;;;;;3.92;1.23;;;14.40;99.90;;;;;;7398633;19;19927;-77
2023/04/29 12:05:18;;;;;;;3.55;1.65;;;14.70;99.90;;;;;;7399749;19;19921;-76
2023/04/29 12:07:47;;;;;;;4.18;1.83;;;14.60;99.90;;;;;;7398516;19;19922;-77
2023/04/29 12:10:15;;;;;;;3.03;1.60;;;14.50;99.90;;;;;;7398948;19;20434;-77
2023/04/29 12:12:45;;;;;;;6.20;1.88;;;14.60;99.90;;;;;;7400603;19;19921;-77
2023/04/29 12:15:15;;;;;;;3.67;1.63;;;14.70;99.90;;;;;;7398297;19;19922;-77
2023/04/29 12:17:45;;;;;;;3.33;1.50;;;15.00;99.90;;;;;;7400679;19;19919;-77
2023/04/29 12:20:17;;;;;;;3.05;1.30;;;14.90;99.90;;;;;;7397602;19;19922;-77
2023/04/29 12:22:46;;;;;;;3.38;2.00;;;15.30;99.90;;;;;;7399223;19;19925;-78
2023/04/29 12:25:15;;;;;;;3.80;1.90;;;15.40;99.90;;;;;;7398134;19;19914;-77
2023/04/29 12:27:44;;;;;;;4.90;2.25;;;15.30;99.90;;;;;;7396282;19;19918;-77
2023/04/29 12:30:13;;;;;;;3.42;1.70;;;15.40;99.90;;;;;;7397797;19;19914;-77
2023/04/29 12:32:43;;;;;;;4.97;1.80;;;15.40;99.90;;;;;;7396642;19;19974;-77
2023/04/29 12:35:20;;;;;;;1.73;1.50;;;15.50;99.90;;;;;;7397602;19;19923;-77
2023/04/29 12:37:51;;;;;;;2.88;1.45;;;15.60;99.90;;;;;;7398049;19;19919;-78
2023/04/29 12:40:21;;;;;;;3.30;2.22;;;15.80;99.90;;;;;;7401002;19;19926;-77
2023/04/29 12:42:50;;;;;;;5.85;2.15;;;15.80;99.90;;;;;;7397573;19;19922;-78
2023/04/29 12:45:30;;;;;;;4.00;2.20;;;15.80;99.90;;;;;;7397823;19;19914;-77
2023/04/29 12:48:00;;;;;;;4.95;2.40;;;15.80;99.90;;;;;;7399319;19;19922;-78
2023/04/29 12:50:39;;;;;;;5.85;2.13;;;15.80;99.90;;;;;;7397138;19;19921;-77
2023/04/29 12:53:10;;;;;;;4.15;1.77;;;16.20;99.90;;;;;;7397525;19;19918;-78
2023/04/29 12:55:40;;;;;;;6.30;2.00;;;16.30;99.90;;;;;;7399818;19;20233;-78
2023/04/29 12:58:09;;;;;;;4.45;2.42;;;16.40;99.90;;;;;;7402092;19;19918;-78
2023/04/29 13:00:38;;;;;;;4.82;2.35;;;16.50;99.90;;;;;;7402380;19;19918;-78
2023/04/29 13:03:07;;;;;;;5.82;2.95;;;16.60;99.90;;;;;;7403189;19;19919;-78